sensor_id;sensor_type;location;lat;lon;timestamp;pressure;altitude;pressure_sealevel;temperature;humidity
67015;BME280;1033;52.560;13.374;2023-12-20T00:00:19;100371.75;;;7.15;100.00
67015;BME280;1033;52.560;13.374;2023-12-20T00:02:47;100363.28;;;7.18;100.00
67015;BME280;1033;52.560;13.374;2023-12-20T00:05:17;100364.69;;;7.14;100.00
67015;BME280;1033;52.560;13.374;2023-12-20T00:07:46;100372.63;;;7.22;100.00
67015;BME280;1033;52.560;13.374;2023-12-20T00:10:15;100365.56;;;7.21;100.00
67015;BME280;1033;52.560;13.374;2023-12-20T00:12:44;100362.13;;;7.27;100.00
67015;BME280;1033;52.560;13.374;2023-12-20T00:15:13;100353.59;;;7.24;100.00
67015;BME280;1033;52.560;13.374;2023-12-20T00:17:41;100349.88;;;7.25;100.00
67015;BME280;1033;52.560;13.374;2023-12-20T00:20:11;100353.19;;;7.27;100.00
67015;BME280;1033;52.560;13.374;2023-12-20T00:22:41;100349.41;;;7.21;100.00
67015;BME280;1033;52.560;13.374;2023-12-20T00:25:11;100344.19;;;7.13;100.00
67015;BME280;1033;52.560;13.374;2023-12-20T00:27:39;100346.94;;;7.20;100.00
67015;BME280;1033;52.560;13.374;2023-12-20T00:30:10;100346.09;;;7.19;100.00
67015;BME280;1033;52.560;13.374;2023-12-20T00:32:39;100336.50;;;7.10;100.00
67015;BME280;1033;52.560;13.374;2023-12-20T00:35:13;100338.81;;;7.13;100.00
67015;BME280;1033;52.560;13.374;2023-12-20T00:37:44;100331.38;;;7.15;100.00
67015;BME280;1033;52.560;13.374;2023-12-20T00:40:13;100333.06;;;7.16;100.00
67015;BME280;1033;52.560;13.374;2023-12-20T00:42:42;100328.47;;;7.17;100.00
67015;BME280;1033;52.560;13.374;2023-12-20T00:45:11;100331.56;;;7.14;100.00
67015;BME280;1033;52.560;13.374;2023-12-20T00:47:39;100335.75;;;7.16;100.00
67015;BME280;1033;52.560;13.374;2023-12-20T00:50:09;100338.47;;;7.23;100.00
67015;BME280;1033;52.560;13.374;2023-12-20T00:52:38;100336.63;;;7.23;100.00
67015;BME280;1033;52.560;13.374;2023-12-20T00:55:08;100340.84;;;7.32;100.00
67015;BME280;1033;52.560;13.374;2023-12-20T00:57:37;100331.06;;;7.25;100.00
67015;BME280;1033;52.560;13.374;2023-12-20T01:00:06;100333.69;;;7.18;100.00
67015;BME280;1033;52.560;13.374;2023-12-20T01:02:37;100341.59;;;7.26;100.00
67015;BME280;1033;52.560;13.374;2023-12-20T01:05:06;100342.91;;;7.30;100.00
67015;BME280;1033;52.560;13.374;2023-12-20T01:07:36;100339.75;;;7.27;100.00
67015;BME280;1033;52.560;13.374;2023-12-20T01:10:07;100346.97;;;7.26;100.00
67015;BME280;1033;52.560;13.374;2023-12-20T01:12:36;100340.72;;;7.19;100.00
67015;BME280;1033;52.560;13.374;2023-12-20T01:15:05;100347.19;;;7.25;100.00
67015;BME280;1033;52.560;13.374;2023-12-20T01:17:34;100351.69;;;7.18;100.00
67015;BME280;1033;52.560;13.374;2023-12-20T01:20:03;100344.03;;;7.21;100.00
67015;BME280;1033;52.560;13.374;2023-12-20T01:22:33;100341.94;;;7.17;100.00
67015;BME280;1033;52.560;13.374;2023-12-20T01:25:03;100345.69;;;7.16;100.00
67015;BME280;1033;52.560;13.374;2023-12-20T01:27:33;100337.03;;;7.20;100.00
67015;BME280;1033;52.560;13.374;2023-12-20T01:30:02;100342.00;;;7.23;100.00
67015;BME280;1033;52.560;13.374;2023-12-20T01:32:30;100344.09;;;7.28;100.00
67015;BME280;1033;52.560;13.374;2023-12-20T01:34:59;100346.63;;;7.29;100.00
67015;BME280;1033;52.560;13.374;2023-12-20T01:37:30;100344.03;;;7.21;100.00
67015;BME280;1033;52.560;13.374;2023-12-20T01:39:58;100343.69;;;7.24;100.00
67015;BME280;1033;52.560;13.374;2023-12-20T01:42:27;100341.75;;;7.18;100.00
67015;BME280;1033;52.560;13.374;2023-12-20T01:44:58;100346.28;;;7.18;100.00
67015;BME280;1033;52.560;13.374;2023-12-20T01:47:27;100340.97;;;7.24;100.00
67015;BME280;1033;52.560;13.374;2023-12-20T01:49:55;100342.41;;;7.20;100.00
67015;BME280;1033;52.560;13.374;2023-12-20T01:52:26;100336.63;;;7.23;100.00
67015;BME280;1033;52.560;13.374;2023-12-20T01:54:55;100333.94;;;7.23;100.00
67015;BME280;1033;52.560;13.374;2023-12-20T01:57:30;100331.06;;;7.25;100.00
67015;BME280;1033;52.560;13.374;2023-12-20T02:00:00;100332.91;;;7.24;100.00
67015;BME280;1033;52.560;13.374;2023-12-20T02:02:31;100335.09;;;7.14;100.00
67015;BME280;1033;52.560;13.374;2023-12-20T02:05:00;100334.25;;;7.14;100.00
67015;BME280;1033;52.560;13.374;2023-12-20T02:07:30;100327.41;;;7.11;100.00
67015;BME280;1033;52.560;13.374;2023-12-20T02:09:59;100316.25;;;7.14;100.00
67015;BME280;1033;52.560;13.374;2023-12-20T02:12:28;100312.91;;;7.12;100.00
67015;BME280;1033;52.560;13.374;2023-12-20T02:14:57;100305.91;;;7.11;100.00
67015;BME280;1033;52.560;13.374;2023-12-20T02:17:28;100321.78;;;7.06;100.00
67015;BME280;1033;52.560;13.374;2023-12-20T02:19:58;100326.00;;;6.94;100.00
67015;BME280;1033;52.560;13.374;2023-12-20T02:22:28;100320.88;;;6.99;100.00
67015;BME280;1033;52.560;13.374;2023-12-20T02:24:57;100310.63;;;6.88;100.00
67015;BME280;1033;52.560;13.374;2023-12-20T02:30:51;100327.91;;;6.79;100.00
67015;BME280;1033;52.560;13.374;2023-12-20T02:33:20;100321.53;;;6.80;100.00
67015;BME280;1033;52.560;13.374;2023-12-20T02:35:48;100328.50;;;6.74;100.00
67015;BME280;1033;52.560;13.374;2023-12-20T02:38:18;100327.56;;;6.82;100.00
67015;BME280;1033;52.560;13.374;2023-12-20T02:40:47;100310.09;;;6.78;100.00
67015;BME280;1033;52.560;13.374;2023-12-20T02:43:16;100314.69;;;6.77;100.00
67015;BME280;1033;52.560;13.374;2023-12-20T02:45:45;100313.72;;;6.85;100.00
67015;BME280;1033;52.560;13.374;2023-12-20T02:48:14;100317.75;;;6.95;100.00
67015;BME280;1033;52.560;13.374;2023-12-20T02:50:43;100326.00;;;6.94;100.00
67015;BME280;1033;52.560;13.374;2023-12-20T02:53:12;100325.63;;;6.97;100.00
67015;BME280;1033;52.560;13.374;2023-12-20T02:55:42;100322.28;;;6.95;100.00
67015;BME280;1033;52.560;13.374;2023-12-20T02:58:11;100329.59;;;7.01;100.00
67015;BME280;1033;52.560;13.374;2023-12-20T03:00:39;100331.81;;;6.97;100.00
67015;BME280;1033;52.560;13.374;2023-12-20T03:03:08;100323.97;;;6.96;100.00
67015;BME280;1033;52.560;13.374;2023-12-20T03:05:37;100327.50;;;6.96;100.00
67015;BME280;1033;52.560;13.374;2023-12-20T03:08:06;100321.91;;;6.98;100.00
67015;BME280;1033;52.560;13.374;2023-12-20T03:10:34;100332.78;;;6.90;100.00
67015;BME280;1033;52.560;13.374;2023-12-20T03:13:05;100325.47;;;6.84;100.00
67015;BME280;1033;52.560;13.374;2023-12-20T03:15:33;100330.34;;;6.74;100.00
67015;BME280;1033;52.560;13.374;2023-12-20T03:18:02;100328.16;;;6.84;100.00
67015;BME280;1033;52.560;13.374;2023-12-20T03:20:31;100324.03;;;6.81;100.00
67015;BME280;1033;52.560;13.374;2023-12-20T03:23:01;100331.56;;;6.92;100.00
67015;BME280;1033;52.560;13.374;2023-12-20T03:25:30;100340.34;;;6.80;100.00
67015;BME280;1033;52.560;13.374;2023-12-20T03:28:00;100326.63;;;6.75;100.00
67015;BME280;1033;52.560;13.374;2023-12-20T03:30:30;100325.53;;;6.69;100.00
67015;BME280;1033;52.560;13.374;2023-12-20T03:32:58;100329.47;;;6.67;100.00
67015;BME280;1033;52.560;13.374;2023-12-20T03:35:27;100331.03;;;6.61;100.00
67015;BME280;1033;52.560;13.374;2023-12-20T03:37:56;100335.59;;;6.61;100.00
67015;BME280;1033;52.560;13.374;2023-12-20T03:40:27;100335.84;;;6.66;100.00
67015;BME280;1033;52.560;13.374;2023-12-20T03:42:56;100336.59;;;6.60;100.00
67015;BME280;1033;52.560;13.374;2023-12-20T03:45:25;100324.38;;;6.57;100.00
67015;BME280;1033;52.560;13.374;2023-12-20T03:47:55;100315.81;;;6.68;100.00
67015;BME280;1033;52.560;13.374;2023-12-20T03:50:24;100305.84;;;6.62;100.00
67015;BME280;1033;52.560;13.374;2023-12-20T03:52:53;100323.16;;;6.60;100.00
67015;BME280;1033;52.560;13.374;2023-12-20T03:55:22;100320.22;;;6.54;100.00
67015;BME280;1033;52.560;13.374;2023-12-20T03:57:51;100321.44;;;6.52;100.00
67015;BME280;1033;52.560;13.374;2023-12-20T04:00:20;100322.91;;;6.54;100.00
67015;BME280;1033;52.560;13.374;2023-12-20T04:02:48;100321.88;;;6.55;100.00
67015;BME280;1033;52.560;13.374;2023-12-20T04:05:19;100309.09;;;6.58;100.00
67015;BME280;1033;52.560;13.374;2023-12-20T04:07:48;100305.75;;;6.55;100.00
67015;BME280;1033;52.560;13.374;2023-12-20T04:10:18;100299.94;;;6.52;100.00
67015;BME280;1033;52.560;13.374;2023-12-20T04:12:46;100291.41;;;6.48;100.00
67015;BME280;1033;52.560;13.374;2023-12-20T04:15:15;100293.31;;;6.54;100.00
67015;BME280;1033;52.560;13.374;2023-12-20T04:17:44;100293.31;;;6.54;100.00
67015;BME280;1033;52.560;13.374;2023-12-20T04:20:13;100293.72;;;6.51;100.00
67015;BME280;1033;52.560;13.374;2023-12-20T04:22:43;100294.13;;;6.48;100.00
67015;BME280;1033;52.560;13.374;2023-12-20T04:25:12;100300.25;;;6.42;100.00
67015;BME280;1033;52.560;13.374;2023-12-20T04:27:41;100295.53;;;6.30;100.00
67015;BME280;1033;52.560;13.374;2023-12-20T04:30:10;100290.84;;;6.17;100.00
67015;BME280;1033;52.560;13.374;2023-12-20T04:32:39;100288.28;;;6.09;100.00
67015;BME280;1033;52.560;13.374;2023-12-20T04:35:08;100293.72;;;6.01;100.00
67015;BME280;1033;52.560;13.374;2023-12-20T04:37:37;100295.88;;;5.91;100.00
67015;BME280;1033;52.560;13.374;2023-12-20T04:40:07;100301.47;;;5.81;100.00
67015;BME280;1033;52.560;13.374;2023-12-20T04:42:36;100298.44;;;5.69;100.00
67015;BME280;1033;52.560;13.374;2023-12-20T04:45:06;100300.75;;;5.58;100.00
67015;BME280;1033;52.560;13.374;2023-12-20T04:47:35;100300.00;;;5.49;100.00
67015;BME280;1033;52.560;13.374;2023-12-20T04:50:05;100298.88;;;5.44;100.00
67015;BME280;1033;52.560;13.374;2023-12-20T04:52:34;100296.63;;;5.33;100.00
67015;BME280;1033;52.560;13.374;2023-12-20T04:55:03;100295.84;;;5.32;100.00
67015;BME280;1033;52.560;13.374;2023-12-20T04:57:33;100296.47;;;5.34;100.00
67015;BME280;1033;52.560;13.374;2023-12-20T05:00:02;100292.41;;;5.38;100.00
67015;BME280;1033;52.560;13.374;2023-12-20T05:02:32;100293.41;;;5.52;100.00
67015;BME280;1033;52.560;13.374;2023-12-20T05:05:00;100292.91;;;5.56;100.00
67015;BME280;1033;52.560;13.374;2023-12-20T05:07:29;100292.69;;;5.73;100.00
67015;BME280;1033;52.560;13.374;2023-12-20T05:09:58;100303.38;;;5.81;100.00
67015;BME280;1033;52.560;13.374;2023-12-20T05:12:26;100289.66;;;5.76;100.00
67015;BME280;1033;52.560;13.374;2023-12-20T05:14:57;100297.16;;;5.65;100.00
67015;BME280;1033;52.560;13.374;2023-12-20T05:17:26;100296.94;;;5.67;100.00
67015;BME280;1033;52.560;13.374;2023-12-20T05:19:55;100299.91;;;5.57;100.00
67015;BME280;1033;52.560;13.374;2023-12-20T05:22:24;100301.03;;;5.48;100.00
67015;BME280;1033;52.560;13.374;2023-12-20T05:24:53;100301.41;;;5.45;100.00
67015;BME280;1033;52.560;13.374;2023-12-20T05:27:21;100300.44;;;5.38;100.00
67015;BME280;1033;52.560;13.374;2023-12-20T05:29:50;100310.72;;;5.35;100.00
67015;BME280;1033;52.560;13.374;2023-12-20T05:32:20;100310.13;;;5.24;100.00
67015;BME280;1033;52.560;13.374;2023-12-20T05:34:49;100293.66;;;5.13;100.00
67015;BME280;1033;52.560;13.374;2023-12-20T05:37:18;100292.91;;;5.19;100.00
67015;BME280;1033;52.560;13.374;2023-12-20T05:39:47;100296.34;;;5.13;100.00
67015;BME280;1033;52.560;13.374;2023-12-20T05:42:15;100295.53;;;5.12;100.00
67015;BME280;1033;52.560;13.374;2023-12-20T05:44:44;100289.66;;;5.09;100.00
67015;BME280;1033;52.560;13.374;2023-12-20T05:47:13;100292.03;;;5.04;100.00
67015;BME280;1033;52.560;13.374;2023-12-20T05:49:43;100286.38;;;4.99;100.00
67015;BME280;1033;52.560;13.374;2023-12-20T05:52:12;100279.94;;;4.93;100.00
67015;BME280;1033;52.560;13.374;2023-12-20T05:54:41;100290.28;;;4.96;100.00
67015;BME280;1033;52.560;13.374;2023-12-20T05:57:09;100293.03;;;4.88;100.00
67015;BME280;1033;52.560;13.374;2023-12-20T05:59:38;100288.03;;;4.85;100.00
67015;BME280;1033;52.560;13.374;2023-12-20T06:02:07;100287.19;;;5.07;100.00
67015;BME280;1033;52.560;13.374;2023-12-20T06:04:36;100278.59;;;5.12;100.00
67015;BME280;1033;52.560;13.374;2023-12-20T06:07:06;100270.06;;;5.23;100.00
67015;BME280;1033;52.560;13.374;2023-12-20T06:09:34;100276.38;;;5.15;100.00
67015;BME280;1033;52.560;13.374;2023-12-20T06:12:03;100273.81;;;5.22;100.00
67015;BME280;1033;52.560;13.374;2023-12-20T06:14:32;100276.19;;;5.17;100.00
67015;BME280;1033;52.560;13.374;2023-12-20T06:17:01;100266.19;;;5.11;100.00
67015;BME280;1033;52.560;13.374;2023-12-20T06:19:30;100263.94;;;5.00;100.00
67015;BME280;1033;52.560;13.374;2023-12-20T06:21:59;100269.28;;;5.00;100.00
67015;BME280;1033;52.560;13.374;2023-12-20T06:24:29;100267.00;;;4.97;100.00
67015;BME280;1033;52.560;13.374;2023-12-20T06:27:00;100277.34;;;5.00;100.00
67015;BME280;1033;52.560;13.374;2023-12-20T06:29:29;100267.84;;;5.12;100.00
67015;BME280;1033;52.560;13.374;2023-12-20T06:31:58;100277.88;;;5.18;100.00
67015;BME280;1033;52.560;13.374;2023-12-20T06:34:27;100280.63;;;5.24;100.00
67015;BME280;1033;52.560;13.374;2023-12-20T06:36:56;100269.72;;;5.26;100.00
67015;BME280;1033;52.560;13.374;2023-12-20T06:39:24;100277.13;;;5.24;100.00
67015;BME280;1033;52.560;13.374;2023-12-20T06:41:54;100280.81;;;5.23;100.00
67015;BME280;1033;52.560;13.374;2023-12-20T06:44:23;100270.06;;;5.23;100.00
67015;BME280;1033;52.560;13.374;2023-12-20T06:46:52;100262.88;;;5.23;100.00
67015;BME280;1033;52.560;13.374;2023-12-20T06:49:20;100264.72;;;5.23;100.00
67015;BME280;1033;52.560;13.374;2023-12-20T06:51:49;100263.41;;;5.19;100.00
67015;BME280;1033;52.560;13.374;2023-12-20T06:54:18;100263.41;;;5.19;100.00
67015;BME280;1033;52.560;13.374;2023-12-20T06:56:46;100260.19;;;5.23;100.00
67015;BME280;1033;52.560;13.374;2023-12-20T06:59:16;100251.13;;;5.24;100.00
67015;BME280;1033;52.560;13.374;2023-12-20T07:01:48;100255.66;;;5.24;100.00
67015;BME280;1033;52.560;13.374;2023-12-20T07:04:18;100248.91;;;5.28;100.00
67015;BME280;1033;52.560;13.374;2023-12-20T07:06:49;100241.69;;;5.29;100.00
67015;BME280;1033;52.560;13.374;2023-12-20T07:09:19;100253.72;;;5.33;100.00
67015;BME280;1033;52.560;13.374;2023-12-20T07:11:48;100252.53;;;5.64;100.00
67015;BME280;1033;52.560;13.374;2023-12-20T07:14:18;100252.16;;;5.97;100.00
67015;BME280;1033;52.560;13.374;2023-12-20T07:16:46;100248.47;;;6.34;100.00
67015;BME280;1033;52.560;13.374;2023-12-20T07:19:15;100251.72;;;6.29;100.00
67015;BME280;1033;52.560;13.374;2023-12-20T07:21:44;100255.63;;;6.27;100.00
67015;BME280;1033;52.560;13.374;2023-12-20T07:24:13;100250.97;;;6.57;100.00
67015;BME280;1033;52.560;13.374;2023-12-20T07:26:41;100256.28;;;6.71;100.00
67015;BME280;1033;52.560;13.374;2023-12-20T07:29:10;100254.53;;;6.85;100.00
67015;BME280;1033;52.560;13.374;2023-12-20T07:31:40;100254.59;;;6.49;100.00
67015;BME280;1033;52.560;13.374;2023-12-20T07:34:09;100241.44;;;6.75;100.00
67015;BME280;1033;52.560;13.374;2023-12-20T07:36:38;100249.56;;;6.61;100.00
67015;BME280;1033;52.560;13.374;2023-12-20T07:39:06;100242.75;;;6.65;100.00
67015;BME280;1033;52.560;13.374;2023-12-20T07:41:35;100238.47;;;6.70;100.00
67015;BME280;1033;52.560;13.374;2023-12-20T07:44:05;100240.03;;;6.58;100.00
67015;BME280;1033;52.560;13.374;2023-12-20T07:46:34;100238.56;;;6.77;100.00
67015;BME280;1033;52.560;13.374;2023-12-20T07:49:04;100238.09;;;6.73;100.00
67015;BME280;1033;52.560;13.374;2023-12-20T07:51:33;100230.78;;;6.88;100.00
67015;BME280;1033;52.560;13.374;2023-12-20T07:54:02;100235.28;;;7.09;100.00
67015;BME280;1033;52.560;13.374;2023-12-20T07:56:32;100239.75;;;6.74;100.00
67015;BME280;1033;52.560;13.374;2023-12-20T07:59:00;100235.09;;;6.62;100.00
67015;BME280;1033;52.560;13.374;2023-12-20T08:01:29;100239.06;;;6.66;100.00
67015;BME280;1033;52.560;13.374;2023-12-20T08:03:58;100243.84;;;7.19;100.00
67015;BME280;1033;52.560;13.374;2023-12-20T08:06:28;100244.03;;;6.90;100.00
67015;BME280;1033;52.560;13.374;2023-12-20T08:08:57;100243.38;;;7.09;100.00
67015;BME280;1033;52.560;13.374;2023-12-20T08:11:33;100244.84;;;7.39;100.00
67015;BME280;1033;52.560;13.374;2023-12-20T08:14:01;100244.63;;;7.13;100.00
67015;BME280;1033;52.560;13.374;2023-12-20T08:16:30;100243.00;;;6.91;100.00
67015;BME280;1033;52.560;13.374;2023-12-20T08:18:59;100242.59;;;7.15;100.00
67015;BME280;1033;52.560;13.374;2023-12-20T08:21:29;100246.56;;;6.98;100.00
67015;BME280;1033;52.560;13.374;2023-12-20T08:24:01;100249.97;;;7.07;100.00
67015;BME280;1033;52.560;13.374;2023-12-20T08:26:30;100251.53;;;7.22;100.00
67015;BME280;1033;52.560;13.374;2023-12-20T08:28:59;100248.41;;;7.19;100.00
67015;BME280;1033;52.560;13.374;2023-12-20T08:31:29;100245.47;;;7.14;100.00
67015;BME280;1033;52.560;13.374;2023-12-20T08:33:57;100243.56;;;7.35;100.00
67015;BME280;1033;52.560;13.374;2023-12-20T08:36:26;100246.38;;;7.21;100.00
67015;BME280;1033;52.560;13.374;2023-12-20T08:38:56;100240.63;;;7.30;100.00
67015;BME280;1033;52.560;13.374;2023-12-20T08:41:25;100242.53;;;7.09;100.00
67015;BME280;1033;52.560;13.374;2023-12-20T08:43:54;100237.59;;;7.40;100.00
67015;BME280;1033;52.560;13.374;2023-12-20T08:46:22;100228.91;;;7.45;100.00
67015;BME280;1033;52.560;13.374;2023-12-20T08:48:51;100224.84;;;7.27;100.00
67015;BME280;1033;52.560;13.374;2023-12-20T08:51:20;100221.34;;;7.61;100.00
67015;BME280;1033;52.560;13.374;2023-12-20T08:53:50;100224.47;;;7.30;100.00
67015;BME280;1033;52.560;13.374;2023-12-20T08:56:20;100218.63;;;7.55;100.00
67015;BME280;1033;52.560;13.374;2023-12-20T08:58:49;100220.16;;;7.36;100.00
67015;BME280;1033;52.560;13.374;2023-12-20T09:01:18;100208.72;;;7.27;100.00
67015;BME280;1033;52.560;13.374;2023-12-20T09:03:47;100210.78;;;7.25;100.00
67015;BME280;1033;52.560;13.374;2023-12-20T09:06:15;100216.94;;;7.19;100.00
67015;BME280;1033;52.560;13.374;2023-12-20T09:08:44;100213.06;;;7.63;100.00
67015;BME280;1033;52.560;13.374;2023-12-20T09:11:13;100211.41;;;7.62;100.00
67015;BME280;1033;52.560;13.374;2023-12-20T09:13:43;100218.97;;;7.86;99.12
67015;BME280;1033;52.560;13.374;2023-12-20T09:16:12;100223.56;;;7.92;97.67
67015;BME280;1033;52.560;13.374;2023-12-20T09:18:43;100212.38;;;7.95;98.10
67015;BME280;1033;52.560;13.374;2023-12-20T09:21:12;100210.84;;;7.79;97.31
67015;BME280;1033;52.560;13.374;2023-12-20T09:23:40;100205.00;;;7.63;99.16
67015;BME280;1033;52.560;13.374;2023-12-20T09:26:09;100198.19;;;7.32;99.17
67015;BME280;1033;52.560;13.374;2023-12-20T09:28:38;100213.78;;;7.84;100.00
67015;BME280;1033;52.560;13.374;2023-12-20T09:31:09;100208.81;;;7.40;100.00
67015;BME280;1033;52.560;13.374;2023-12-20T09:33:38;100202.22;;;7.50;98.99
67015;BME280;1033;52.560;13.374;2023-12-20T09:36:07;100206.66;;;7.29;100.00
67015;BME280;1033;52.560;13.374;2023-12-20T09:38:36;100201.91;;;7.31;100.00
67015;BME280;1033;52.560;13.374;2023-12-20T09:41:04;100197.22;;;7.47;100.00
67015;BME280;1033;52.560;13.374;2023-12-20T09:43:37;100206.13;;;7.88;98.75
67015;BME280;1033;52.560;13.374;2023-12-20T09:46:08;100202.34;;;7.69;98.15
67015;BME280;1033;52.560;13.374;2023-12-20T09:48:39;100202.72;;;7.66;98.75
67015;BME280;1033;52.560;13.374;2023-12-20T09:51:10;100195.41;;;7.54;98.51
67015;BME280;1033;52.560;13.374;2023-12-20T09:53:40;100196.72;;;7.64;98.91
67015;BME280;1033;52.560;13.374;2023-12-20T09:56:10;100197.28;;;7.53;98.62
67015;BME280;1033;52.560;13.374;2023-12-20T09:58:39;100187.81;;;7.29;99.23
67015;BME280;1033;52.560;13.374;2023-12-20T10:01:09;100186.78;;;7.71;97.53
67015;BME280;1033;52.560;13.374;2023-12-20T10:03:40;100195.06;;;7.70;97.18
67015;BME280;1033;52.560;13.374;2023-12-20T10:06:09;100178.91;;;7.63;97.71
67015;BME280;1033;52.560;13.374;2023-12-20T10:08:39;100174.81;;;7.74;97.41
67015;BME280;1033;52.560;13.374;2023-12-20T10:11:08;100169.09;;;7.56;97.79
67015;BME280;1033;52.560;13.374;2023-12-20T10:13:40;100174.94;;;7.59;97.35
67015;BME280;1033;52.560;13.374;2023-12-20T10:16:11;100177.78;;;7.45;98.59
67015;BME280;1033;52.560;13.374;2023-12-20T10:18:40;100168.34;;;7.68;97.35
67015;BME280;1033;52.560;13.374;2023-12-20T10:21:09;100148.63;;;7.55;97.57
67015;BME280;1033;52.560;13.374;2023-12-20T10:23:39;100147.19;;;7.59;96.42
67015;BME280;1033;52.560;13.374;2023-12-20T10:26:08;100152.19;;;7.75;95.10
67015;BME280;1033;52.560;13.374;2023-12-20T10:28:37;100146.00;;;7.81;95.41
67015;BME280;1033;52.560;13.374;2023-12-20T10:31:06;100151.66;;;7.99;94.00
67015;BME280;1033;52.560;13.374;2023-12-20T10:33:36;100146.72;;;8.09;93.48
67015;BME280;1033;52.560;13.374;2023-12-20T10:36:09;100134.47;;;8.00;93.70
67015;BME280;1033;52.560;13.374;2023-12-20T10:38:42;100134.44;;;7.87;95.75
67015;BME280;1033;52.560;13.374;2023-12-20T10:41:12;100119.06;;;7.81;94.33
67015;BME280;1033;52.560;13.374;2023-12-20T10:43:41;100112.72;;;8.02;94.04
67015;BME280;1033;52.560;13.374;2023-12-20T10:46:10;100107.28;;;7.82;94.56
67015;BME280;1033;52.560;13.374;2023-12-20T10:48:40;100104.63;;;8.15;93.54
67015;BME280;1033;52.560;13.374;2023-12-20T10:51:10;100100.69;;;8.04;92.93
67015;BME280;1033;52.560;13.374;2023-12-20T10:53:41;100102.56;;;7.97;93.16
67015;BME280;1033;52.560;13.374;2023-12-20T10:56:15;100096.69;;;7.80;93.50
67015;BME280;1033;52.560;13.374;2023-12-20T10:58:45;100083.47;;;7.79;94.48
67015;BME280;1033;52.560;13.374;2023-12-20T11:01:15;100085.53;;;7.83;92.50
67015;BME280;1033;52.560;13.374;2023-12-20T11:03:52;100080.50;;;7.67;94.54
67015;BME280;1033;52.560;13.374;2023-12-20T11:06:33;100079.34;;;8.09;93.47
67015;BME280;1033;52.560;13.374;2023-12-20T11:09:13;100075.19;;;8.00;92.53
67015;BME280;1033;52.560;13.374;2023-12-20T11:11:57;100058.41;;;8.24;91.81
67015;BME280;1033;52.560;13.374;2023-12-20T11:14:31;100065.09;;;8.42;91.36
67015;BME280;1033;52.560;13.374;2023-12-20T11:17:07;100063.19;;;8.22;91.45
67015;BME280;1033;52.560;13.374;2023-12-20T11:19:43;100056.56;;;8.12;93.78
67015;BME280;1033;52.560;13.374;2023-12-20T11:22:32;100062.94;;;7.91;94.92
67015;BME280;1033;52.560;13.374;2023-12-20T11:25:08;100036.00;;;7.78;95.29
67015;BME280;1033;52.560;13.374;2023-12-20T11:27:41;100044.91;;;7.85;95.21
67015;BME280;1033;52.560;13.374;2023-12-20T11:30:15;100033.09;;;7.79;96.48
67015;BME280;1033;52.560;13.374;2023-12-20T11:32:46;100024.00;;;8.00;97.24
67015;BME280;1033;52.560;13.374;2023-12-20T11:35:20;100023.78;;;7.95;96.58
67015;BME280;1033;52.560;13.374;2023-12-20T11:37:51;100020.88;;;7.77;97.04
67015;BME280;1033;52.560;13.374;2023-12-20T11:40:20;100018.56;;;7.61;97.76
67015;BME280;1033;52.560;13.374;2023-12-20T11:42:52;100005.56;;;7.97;96.79
67015;BME280;1033;52.560;13.374;2023-12-20T11:45:24;99988.97;;;8.20;95.59
67015;BME280;1033;52.560;13.374;2023-12-20T11:47:57;100010.16;;;8.36;94.89
67015;BME280;1033;52.560;13.374;2023-12-20T11:50:29;99996.44;;;7.98;95.61
67015;BME280;1033;52.560;13.374;2023-12-20T11:52:58;99984.84;;;8.11;94.90
67015;BME280;1033;52.560;13.374;2023-12-20T11:55:27;99980.25;;;7.85;96.70
67015;BME280;1033;52.560;13.374;2023-12-20T11:57:56;99958.50;;;8.00;96.63
67015;BME280;1033;52.560;13.374;2023-12-20T12:00:25;99962.03;;;7.87;96.36
67015;BME280;1033;52.560;13.374;2023-12-20T12:02:58;99950.00;;;7.90;96.13
67015;BME280;1033;52.560;13.374;2023-12-20T12:05:31;99949.78;;;8.04;95.20
67015;BME280;1033;52.560;13.374;2023-12-20T12:08:00;99936.72;;;8.14;94.44
67015;BME280;1033;52.560;13.374;2023-12-20T12:10:30;99934.63;;;8.43;93.89
67015;BME280;1033;52.560;13.374;2023-12-20T12:12:59;99936.72;;;8.14;92.99
67015;BME280;1033;52.560;13.374;2023-12-20T12:15:29;99930.13;;;8.17;93.97
67015;BME280;1033;52.560;13.374;2023-12-20T12:17:58;99922.84;;;8.17;93.88
67015;BME280;1033;52.560;13.374;2023-12-20T12:20:29;99913.50;;;8.13;93.04
67015;BME280;1033;52.560;13.374;2023-12-20T12:22:58;99903.59;;;7.94;94.13
67015;BME280;1033;52.560;13.374;2023-12-20T12:25:29;99911.25;;;8.10;96.17
67015;BME280;1033;52.560;13.374;2023-12-20T12:27:59;99904.84;;;7.85;96.83
67015;BME280;1033;52.560;13.374;2023-12-20T12:30:28;99895.97;;;7.65;97.98
67015;BME280;1033;52.560;13.374;2023-12-20T12:33:05;99906.13;;;7.69;99.07
67015;BME280;1033;52.560;13.374;2023-12-20T12:35:36;99899.88;;;7.82;98.43
67015;BME280;1033;52.560;13.374;2023-12-20T12:38:07;99895.16;;;7.64;100.00
67015;BME280;1033;52.560;13.374;2023-12-20T12:40:36;99895.34;;;7.50;100.00
67015;BME280;1033;52.560;13.374;2023-12-20T12:43:05;99887.03;;;7.31;100.00
67015;BME280;1033;52.560;13.374;2023-12-20T12:45:34;99874.63;;;7.43;100.00
67015;BME280;1033;52.560;13.374;2023-12-20T12:48:03;99866.75;;;7.42;100.00
67015;BME280;1033;52.560;13.374;2023-12-20T12:50:32;99865.53;;;7.45;100.00
67015;BME280;1033;52.560;13.374;2023-12-20T12:53:03;99861.19;;;7.30;100.00
67015;BME280;1033;52.560;13.374;2023-12-20T12:55:32;99855.56;;;7.25;100.00
67015;BME280;1033;52.560;13.374;2023-12-20T12:58:01;99842.72;;;7.14;100.00
67015;BME280;1033;52.560;13.374;2023-12-20T13:00:30;99839.19;;;7.14;100.00
67015;BME280;1033;52.560;13.374;2023-12-20T13:02:59;99857.63;;;7.23;100.00
67015;BME280;1033;52.560;13.374;2023-12-20T13:05:27;99846.06;;;7.29;100.00
67015;BME280;1033;52.560;13.374;2023-12-20T13:07:56;99862.19;;;7.29;100.00